sensor_id;sensor_type;location;lat;lon;timestamp;temperature;humidity
13472;DHT22;6808;49.444;11.034;2024-02-26T00:02:07;3.80;99.90
13472;DHT22;6808;49.444;11.034;2024-02-26T00:04:32;3.80;99.90
13472;DHT22;6808;49.444;11.034;2024-02-26T00:06:58;4.70;99.90
13472;DHT22;6808;49.444;11.034;2024-02-26T00:09:23;3.80;99.90
13472;DHT22;6808;49.444;11.034;2024-02-26T00:11:49;3.80;99.90
13472;DHT22;6808;49.444;11.034;2024-02-26T00:14:14;3.70;99.90
13472;DHT22;6808;49.444;11.034;2024-02-26T00:16:40;3.70;99.90
13472;DHT22;6808;49.444;11.034;2024-02-26T00:19:10;3.70;99.90
13472;DHT22;6808;49.444;11.034;2024-02-26T00:21:40;3.70;99.90
13472;DHT22;6808;49.444;11.034;2024-02-26T00:24:06;3.70;99.90
13472;DHT22;6808;49.444;11.034;2024-02-26T00:26:32;4.00;99.90
13472;DHT22;6808;49.444;11.034;2024-02-26T00:28:57;3.60;99.90
13472;DHT22;6808;49.444;11.034;2024-02-26T00:31:23;3.60;99.90
13472;DHT22;6808;49.444;11.034;2024-02-26T00:33:48;3.50;99.90
13472;DHT22;6808;49.444;11.034;2024-02-26T00:36:14;3.50;99.90
13472;DHT22;6808;49.444;11.034;2024-02-26T00:38:39;3.50;99.90
13472;DHT22;6808;49.444;11.034;2024-02-26T00:41:05;3.50;99.90
13472;DHT22;6808;49.444;11.034;2024-02-26T00:43:31;3.40;99.90
13472;DHT22;6808;49.444;11.034;2024-02-26T00:45:56;3.40;99.90
13472;DHT22;6808;49.444;11.034;2024-02-26T00:48:22;3.40;99.90
13472;DHT22;6808;49.444;11.034;2024-02-26T00:50:47;3.30;99.90
13472;DHT22;6808;49.444;11.034;2024-02-26T00:53:13;3.30;99.90
13472;DHT22;6808;49.444;11.034;2024-02-26T00:55:39;3.30;99.90
13472;DHT22;6808;49.444;11.034;2024-02-26T00:58:04;3.30;99.90
13472;DHT22;6808;49.444;11.034;2024-02-26T01:00:30;3.30;99.90
13472;DHT22;6808;49.444;11.034;2024-02-26T01:02:55;3.20;99.90
13472;DHT22;6808;49.444;11.034;2024-02-26T01:05:22;3.20;99.90
13472;DHT22;6808;49.444;11.034;2024-02-26T01:07:47;3.20;99.90
13472;DHT22;6808;49.444;11.034;2024-02-26T01:10:13;3.20;99.90
13472;DHT22;6808;49.444;11.034;2024-02-26T01:12:38;3.10;99.90
13472;DHT22;6808;49.444;11.034;2024-02-26T01:15:04;3.10;99.90
13472;DHT22;6808;49.444;11.034;2024-02-26T01:17:30;3.10;99.90
13472;DHT22;6808;49.444;11.034;2024-02-26T01:19:56;3.10;99.90
13472;DHT22;6808;49.444;11.034;2024-02-26T01:22:22;3.00;99.90
13472;DHT22;6808;49.444;11.034;2024-02-26T01:24:47;3.00;99.90
13472;DHT22;6808;49.444;11.034;2024-02-26T01:27:13;3.00;99.90
13472;DHT22;6808;49.444;11.034;2024-02-26T01:29:41;3.00;99.90
13472;DHT22;6808;49.444;11.034;2024-02-26T01:32:07;3.00;99.90
13472;DHT22;6808;49.444;11.034;2024-02-26T01:34:32;3.00;99.90
13472;DHT22;6808;49.444;11.034;2024-02-26T01:36:59;2.90;99.90
13472;DHT22;6808;49.444;11.034;2024-02-26T01:39:24;3.00;99.90
13472;DHT22;6808;49.444;11.034;2024-02-26T01:41:50;3.10;99.90
13472;DHT22;6808;49.444;11.034;2024-02-26T01:44:16;3.20;99.90
13472;DHT22;6808;49.444;11.034;2024-02-26T01:46:41;3.30;99.90
13472;DHT22;6808;49.444;11.034;2024-02-26T01:49:08;3.40;99.90
13472;DHT22;6808;49.444;11.034;2024-02-26T01:51:38;3.50;99.90
13472;DHT22;6808;49.444;11.034;2024-02-26T01:54:05;3.60;99.90
13472;DHT22;6808;49.444;11.034;2024-02-26T01:56:32;3.60;99.90
13472;DHT22;6808;49.444;11.034;2024-02-26T01:58:58;3.70;99.90
13472;DHT22;6808;49.444;11.034;2024-02-26T02:01:29;3.90;99.90
13472;DHT22;6808;49.444;11.034;2024-02-26T02:03:58;3.90;99.90
13472;DHT22;6808;49.444;11.034;2024-02-26T02:06:24;4.00;99.90
13472;DHT22;6808;49.444;11.034;2024-02-26T02:08:50;4.10;99.90
13472;DHT22;6808;49.444;11.034;2024-02-26T02:11:16;4.10;99.90
13472;DHT22;6808;49.444;11.034;2024-02-26T02:13:42;4.20;99.90
13472;DHT22;6808;49.444;11.034;2024-02-26T02:16:08;4.20;99.90
13472;DHT22;6808;49.444;11.034;2024-02-26T02:18:34;4.20;99.90
13472;DHT22;6808;49.444;11.034;2024-02-26T02:21:03;4.20;99.90
13472;DHT22;6808;49.444;11.034;2024-02-26T02:23:28;4.20;99.90
13472;DHT22;6808;49.444;11.034;2024-02-26T02:25:54;4.20;99.90
13472;DHT22;6808;49.444;11.034;2024-02-26T02:28:21;4.30;99.90
13472;DHT22;6808;49.444;11.034;2024-02-26T02:30:48;4.30;99.90
13472;DHT22;6808;49.444;11.034;2024-02-26T02:33:14;4.20;99.90
13472;DHT22;6808;49.444;11.034;2024-02-26T02:35:40;4.10;99.90
13472;DHT22;6808;49.444;11.034;2024-02-26T02:38:06;4.10;99.90
13472;DHT22;6808;49.444;11.034;2024-02-26T02:40:31;4.10;99.90
13472;DHT22;6808;49.444;11.034;2024-02-26T02:42:57;4.20;99.90
13472;DHT22;6808;49.444;11.034;2024-02-26T02:45:23;4.20;99.90
13472;DHT22;6808;49.444;11.034;2024-02-26T02:47:48;4.20;99.90
13472;DHT22;6808;49.444;11.034;2024-02-26T02:50:14;4.30;99.90
13472;DHT22;6808;49.444;11.034;2024-02-26T02:52:39;4.30;99.90
13472;DHT22;6808;49.444;11.034;2024-02-26T02:55:05;4.30;99.90
13472;DHT22;6808;49.444;11.034;2024-02-26T02:57:31;4.30;99.90
13472;DHT22;6808;49.444;11.034;2024-02-26T02:59:57;4.30;99.90
13472;DHT22;6808;49.444;11.034;2024-02-26T03:02:23;4.30;99.90
13472;DHT22;6808;49.444;11.034;2024-02-26T03:04:50;4.30;99.90
13472;DHT22;6808;49.444;11.034;2024-02-26T03:07:16;4.30;99.90
13472;DHT22;6808;49.444;11.034;2024-02-26T03:09:41;4.30;99.90
13472;DHT22;6808;49.444;11.034;2024-02-26T03:12:07;4.40;99.90
13472;DHT22;6808;49.444;11.034;2024-02-26T03:14:32;4.40;99.90
13472;DHT22;6808;49.444;11.034;2024-02-26T03:16:58;4.40;99.90
13472;DHT22;6808;49.444;11.034;2024-02-26T03:19:23;4.40;99.90
13472;DHT22;6808;49.444;11.034;2024-02-26T03:21:49;4.40;99.90
13472;DHT22;6808;49.444;11.034;2024-02-26T03:24:15;4.40;99.90
13472;DHT22;6808;49.444;11.034;2024-02-26T03:26:40;4.40;99.90
13472;DHT22;6808;49.444;11.034;2024-02-26T03:29:06;4.40;99.90
13472;DHT22;6808;49.444;11.034;2024-02-26T03:31:31;4.50;99.90
13472;DHT22;6808;49.444;11.034;2024-02-26T03:33:57;4.50;99.90
13472;DHT22;6808;49.444;11.034;2024-02-26T03:36:22;4.40;99.90
13472;DHT22;6808;49.444;11.034;2024-02-26T03:38:48;4.40;99.90
13472;DHT22;6808;49.444;11.034;2024-02-26T03:41:14;4.30;99.90
13472;DHT22;6808;49.444;11.034;2024-02-26T03:43:40;4.30;99.90
13472;DHT22;6808;49.444;11.034;2024-02-26T03:46:08;4.20;99.90
13472;DHT22;6808;49.444;11.034;2024-02-26T03:48:36;4.10;99.90
13472;DHT22;6808;49.444;11.034;2024-02-26T03:51:02;4.10;99.90
13472;DHT22;6808;49.444;11.034;2024-02-26T03:53:27;4.10;99.90
13472;DHT22;6808;49.444;11.034;2024-02-26T03:55:53;4.00;99.90
13472;DHT22;6808;49.444;11.034;2024-02-26T03:58:20;4.00;99.90
13472;DHT22;6808;49.444;11.034;2024-02-26T04:00:46;4.00;99.90
13472;DHT22;6808;49.444;11.034;2024-02-26T04:03:13;4.00;99.90
13472;DHT22;6808;49.444;11.034;2024-02-26T04:05:39;3.90;99.90
13472;DHT22;6808;49.444;11.034;2024-02-26T04:08:05;3.90;99.90
13472;DHT22;6808;49.444;11.034;2024-02-26T04:10:32;3.90;99.90
13472;DHT22;6808;49.444;11.034;2024-02-26T04:13:00;3.90;99.90
13472;DHT22;6808;49.444;11.034;2024-02-26T04:15:28;3.90;99.90
13472;DHT22;6808;49.444;11.034;2024-02-26T04:17:54;3.80;99.90
13472;DHT22;6808;49.444;11.034;2024-02-26T04:20:19;3.90;99.90
13472;DHT22;6808;49.444;11.034;2024-02-26T04:22:45;3.80;99.90
13472;DHT22;6808;49.444;11.034;2024-02-26T04:25:11;3.80;99.90
13472;DHT22;6808;49.444;11.034;2024-02-26T04:27:37;3.80;99.90
13472;DHT22;6808;49.444;11.034;2024-02-26T04:30:03;3.80;99.90
13472;DHT22;6808;49.444;11.034;2024-02-26T04:32:29;3.80;99.90
13472;DHT22;6808;49.444;11.034;2024-02-26T04:34:54;3.90;99.90
13472;DHT22;6808;49.444;11.034;2024-02-26T04:37:20;3.90;99.90
13472;DHT22;6808;49.444;11.034;2024-02-26T04:39:45;3.90;99.90
13472;DHT22;6808;49.444;11.034;2024-02-26T04:42:11;3.80;99.90
13472;DHT22;6808;49.444;11.034;2024-02-26T04:44:36;3.80;99.90
13472;DHT22;6808;49.444;11.034;2024-02-26T04:47:02;3.90;99.90
13472;DHT22;6808;49.444;11.034;2024-02-26T04:49:28;3.90;99.90
13472;DHT22;6808;49.444;11.034;2024-02-26T04:51:53;3.90;99.90
13472;DHT22;6808;49.444;11.034;2024-02-26T04:54:19;3.80;99.90
13472;DHT22;6808;49.444;11.034;2024-02-26T04:56:45;3.80;99.90
13472;DHT22;6808;49.444;11.034;2024-02-26T04:59:10;3.80;99.90
13472;DHT22;6808;49.444;11.034;2024-02-26T05:01:36;3.80;99.90
13472;DHT22;6808;49.444;11.034;2024-02-26T05:04:02;3.90;99.90
13472;DHT22;6808;49.444;11.034;2024-02-26T05:06:28;4.00;99.90
13472;DHT22;6808;49.444;11.034;2024-02-26T05:08:54;4.10;99.90
13472;DHT22;6808;49.444;11.034;2024-02-26T05:11:19;4.20;99.90
13472;DHT22;6808;49.444;11.034;2024-02-26T05:13:45;4.20;99.90
13472;DHT22;6808;49.444;11.034;2024-02-26T05:16:11;4.30;99.90
13472;DHT22;6808;49.444;11.034;2024-02-26T05:18:36;4.30;99.90
13472;DHT22;6808;49.444;11.034;2024-02-26T05:21:02;4.30;99.90
13472;DHT22;6808;49.444;11.034;2024-02-26T05:23:28;4.20;99.90
13472;DHT22;6808;49.444;11.034;2024-02-26T05:25:54;4.20;99.90
13472;DHT22;6808;49.444;11.034;2024-02-26T05:28:20;4.20;99.90
13472;DHT22;6808;49.444;11.034;2024-02-26T05:30:46;4.20;99.90
13472;DHT22;6808;49.444;11.034;2024-02-26T05:33:12;4.20;99.90
13472;DHT22;6808;49.444;11.034;2024-02-26T05:35:37;4.20;99.90
13472;DHT22;6808;49.444;11.034;2024-02-26T05:38:03;4.20;99.90
13472;DHT22;6808;49.444;11.034;2024-02-26T05:40:29;4.10;99.90
13472;DHT22;6808;49.444;11.034;2024-02-26T05:42:55;4.10;99.90
13472;DHT22;6808;49.444;11.034;2024-02-26T05:45:21;4.10;99.90
13472;DHT22;6808;49.444;11.034;2024-02-26T05:47:47;4.10;99.90
13472;DHT22;6808;49.444;11.034;2024-02-26T05:50:13;4.10;99.90
13472;DHT22;6808;49.444;11.034;2024-02-26T05:52:40;4.10;99.90
13472;DHT22;6808;49.444;11.034;2024-02-26T05:55:06;4.10;99.90
13472;DHT22;6808;49.444;11.034;2024-02-26T05:57:34;4.20;99.90
13472;DHT22;6808;49.444;11.034;2024-02-26T06:00:00;4.20;99.90
13472;DHT22;6808;49.444;11.034;2024-02-26T06:02:30;4.10;99.90
13472;DHT22;6808;49.444;11.034;2024-02-26T06:04:55;4.20;99.90
13472;DHT22;6808;49.444;11.034;2024-02-26T06:07:21;4.10;99.90
13472;DHT22;6808;49.444;11.034;2024-02-26T06:09:46;4.10;99.90
13472;DHT22;6808;49.444;11.034;2024-02-26T06:12:12;4.10;99.90
13472;DHT22;6808;49.444;11.034;2024-02-26T06:14:37;4.10;99.90
13472;DHT22;6808;49.444;11.034;2024-02-26T06:17:03;4.10;99.90
13472;DHT22;6808;49.444;11.034;2024-02-26T06:19:29;4.10;99.90
13472;DHT22;6808;49.444;11.034;2024-02-26T06:21:54;4.10;99.90
13472;DHT22;6808;49.444;11.034;2024-02-26T06:24:20;4.10;99.90
13472;DHT22;6808;49.444;11.034;2024-02-26T06:26:47;4.10;99.90
13472;DHT22;6808;49.444;11.034;2024-02-26T06:29:13;4.10;99.90
13472;DHT22;6808;49.444;11.034;2024-02-26T06:31:38;4.10;99.90
13472;DHT22;6808;49.444;11.034;2024-02-26T06:34:04;4.10;99.90
13472;DHT22;6808;49.444;11.034;2024-02-26T06:36:30;4.10;99.90
13472;DHT22;6808;49.444;11.034;2024-02-26T06:38:57;4.10;99.90
13472;DHT22;6808;49.444;11.034;2024-02-26T06:41:23;4.10;99.90
13472;DHT22;6808;49.444;11.034;2024-02-26T06:43:55;4.10;99.90
13472;DHT22;6808;49.444;11.034;2024-02-26T06:46:22;4.10;99.90
13472;DHT22;6808;49.444;11.034;2024-02-26T06:48:48;4.10;99.90
13472;DHT22;6808;49.444;11.034;2024-02-26T06:51:15;4.10;99.90
13472;DHT22;6808;49.444;11.034;2024-02-26T06:53:40;4.20;99.90
13472;DHT22;6808;49.444;11.034;2024-02-26T06:56:06;4.30;99.90
13472;DHT22;6808;49.444;11.034;2024-02-26T06:58:32;4.30;99.90
13472;DHT22;6808;49.444;11.034;2024-02-26T07:00:58;4.30;99.90
13472;DHT22;6808;49.444;11.034;2024-02-26T07:03:23;4.30;99.90
13472;DHT22;6808;49.444;11.034;2024-02-26T07:05:51;4.30;99.90
13472;DHT22;6808;49.444;11.034;2024-02-26T07:08:17;4.40;99.90
13472;DHT22;6808;49.444;11.034;2024-02-26T07:10:42;4.50;99.90
13472;DHT22;6808;49.444;11.034;2024-02-26T07:13:08;4.60;99.90
13472;DHT22;6808;49.444;11.034;2024-02-26T07:15:34;4.70;99.90
13472;DHT22;6808;49.444;11.034;2024-02-26T07:17:59;4.80;99.90
13472;DHT22;6808;49.444;11.034;2024-02-26T07:20:29;4.80;99.90
13472;DHT22;6808;49.444;11.034;2024-02-26T07:22:55;4.90;99.90
13472;DHT22;6808;49.444;11.034;2024-02-26T07:25:21;4.90;99.90
13472;DHT22;6808;49.444;11.034;2024-02-26T07:27:46;4.90;99.90
13472;DHT22;6808;49.444;11.034;2024-02-26T07:30:12;5.00;99.90
13472;DHT22;6808;49.444;11.034;2024-02-26T07:32:38;5.10;99.90
13472;DHT22;6808;49.444;11.034;2024-02-26T07:35:04;5.10;99.90
13472;DHT22;6808;49.444;11.034;2024-02-26T07:37:30;5.20;99.90
13472;DHT22;6808;49.444;11.034;2024-02-26T07:39:56;5.20;99.90
13472;DHT22;6808;49.444;11.034;2024-02-26T07:42:21;5.30;99.90
13472;DHT22;6808;49.444;11.034;2024-02-26T07:44:47;5.40;99.90
13472;DHT22;6808;49.444;11.034;2024-02-26T07:47:12;5.40;99.90
13472;DHT22;6808;49.444;11.034;2024-02-26T07:49:39;5.50;99.90
13472;DHT22;6808;49.444;11.034;2024-02-26T07:52:04;5.60;99.90
13472;DHT22;6808;49.444;11.034;2024-02-26T07:54:30;5.60;99.80
13472;DHT22;6808;49.444;11.034;2024-02-26T07:56:56;5.70;99.70
13472;DHT22;6808;49.444;11.034;2024-02-26T07:59:21;5.80;99.90
13472;DHT22;6808;49.444;11.034;2024-02-26T08:01:51;5.80;99.70
13472;DHT22;6808;49.444;11.034;2024-02-26T08:04:17;5.90;99.70
13472;DHT22;6808;49.444;11.034;2024-02-26T08:06:42;5.90;99.90
13472;DHT22;6808;49.444;11.034;2024-02-26T08:09:08;5.90;99.10
13472;DHT22;6808;49.444;11.034;2024-02-26T08:11:34;6.00;98.80
13472;DHT22;6808;49.444;11.034;2024-02-26T08:14:00;6.00;98.80
13472;DHT22;6808;49.444;11.034;2024-02-26T08:16:26;6.00;99.10
13472;DHT22;6808;49.444;11.034;2024-02-26T08:18:51;6.00;98.70
13472;DHT22;6808;49.444;11.034;2024-02-26T08:21:17;6.10;98.90
13472;DHT22;6808;49.444;11.034;2024-02-26T08:23:46;6.10;99.00
13472;DHT22;6808;49.444;11.034;2024-02-26T08:26:11;6.10;99.00
13472;DHT22;6808;49.444;11.034;2024-02-26T08:28:37;7.10;99.90
13472;DHT22;6808;49.444;11.034;2024-02-26T08:31:03;6.10;99.20
13472;DHT22;6808;49.444;11.034;2024-02-26T08:33:29;6.10;98.90
13472;DHT22;6808;49.444;11.034;2024-02-26T08:35:55;6.10;98.90
13472;DHT22;6808;49.444;11.034;2024-02-26T08:38:21;6.10;99.00
13472;DHT22;6808;49.444;11.034;2024-02-26T08:40:46;6.10;99.00
13472;DHT22;6808;49.444;11.034;2024-02-26T08:43:12;6.10;99.20
13472;DHT22;6808;49.444;11.034;2024-02-26T08:45:37;6.20;98.90
13472;DHT22;6808;49.444;11.034;2024-02-26T08:48:03;6.20;99.00
13472;DHT22;6808;49.444;11.034;2024-02-26T08:50:28;6.20;99.20
13472;DHT22;6808;49.444;11.034;2024-02-26T08:52:54;6.20;99.30
13472;DHT22;6808;49.444;11.034;2024-02-26T08:55:20;6.20;99.40
13472;DHT22;6808;49.444;11.034;2024-02-26T08:57:45;6.30;99.40
13472;DHT22;6808;49.444;11.034;2024-02-26T09:00:11;6.30;99.40
13472;DHT22;6808;49.444;11.034;2024-02-26T09:02:37;6.40;99.80
13472;DHT22;6808;49.444;11.034;2024-02-26T09:05:07;6.40;99.70
13472;DHT22;6808;49.444;11.034;2024-02-26T09:07:33;6.50;98.70
13472;DHT22;6808;49.444;11.034;2024-02-26T09:09:59;6.60;98.30
13472;DHT22;6808;49.444;11.034;2024-02-26T09:12:24;6.70;97.70
13472;DHT22;6808;49.444;11.034;2024-02-26T09:14:50;6.80;97.70
13472;DHT22;6808;49.444;11.034;2024-02-26T09:17:15;6.80;97.40
13472;DHT22;6808;49.444;11.034;2024-02-26T09:19:41;6.90;97.30
13472;DHT22;6808;49.444;11.034;2024-02-26T09:22:07;7.10;96.30
13472;DHT22;6808;49.444;11.034;2024-02-26T09:24:33;7.20;95.40
13472;DHT22;6808;49.444;11.034;2024-02-26T09:26:59;7.50;95.90
13472;DHT22;6808;49.444;11.034;2024-02-26T09:29:24;7.50;95.80
13472;DHT22;6808;49.444;11.034;2024-02-26T09:31:51;7.60;95.80
13472;DHT22;6808;49.444;11.034;2024-02-26T09:34:17;7.80;95.60
13472;DHT22;6808;49.444;11.034;2024-02-26T09:36:43;7.80;94.60
13472;DHT22;6808;49.444;11.034;2024-02-26T09:39:09;7.90;95.30
13472;DHT22;6808;49.444;11.034;2024-02-26T09:41:37;7.90;95.30
13472;DHT22;6808;49.444;11.034;2024-02-26T09:44:04;8.00;94.60
13472;DHT22;6808;49.444;11.034;2024-02-26T09:46:30;8.40;95.40
13472;DHT22;6808;49.444;11.034;2024-02-26T09:48:56;8.10;95.00
13472;DHT22;6808;49.444;11.034;2024-02-26T09:51:25;8.10;95.20
13472;DHT22;6808;49.444;11.034;2024-02-26T09:53:52;8.10;95.40
13472;DHT22;6808;49.444;11.034;2024-02-26T09:56:18;8.10;95.10
13472;DHT22;6808;49.444;11.034;2024-02-26T09:58:43;8.10;95.00
13472;DHT22;6808;49.444;11.034;2024-02-26T10:01:17;8.10;95.10
13472;DHT22;6808;49.444;11.034;2024-02-26T10:03:43;8.10;95.50
13472;DHT22;6808;49.444;11.034;2024-02-26T10:06:11;8.10;96.40
13472;DHT22;6808;49.444;11.034;2024-02-26T10:08:37;8.20;95.80
13472;DHT22;6808;49.444;11.034;2024-02-26T10:11:05;8.20;95.80
13472;DHT22;6808;49.444;11.034;2024-02-26T10:13:32;8.20;95.70
13472;DHT22;6808;49.444;11.034;2024-02-26T10:15:57;8.30;95.30
13472;DHT22;6808;49.444;11.034;2024-02-26T10:18:24;8.30;95.10
13472;DHT22;6808;49.444;11.034;2024-02-26T10:21:00;8.30;95.30
13472;DHT22;6808;49.444;11.034;2024-02-26T10:23:26;8.40;95.60
13472;DHT22;6808;49.444;11.034;2024-02-26T10:25:55;8.40;95.40
13472;DHT22;6808;49.444;11.034;2024-02-26T10:28:22;8.50;95.20
13472;DHT22;6808;49.444;11.034;2024-02-26T10:30:47;8.50;93.20
13472;DHT22;6808;49.444;11.034;2024-02-26T10:33:13;8.60;92.00
13472;DHT22;6808;49.444;11.034;2024-02-26T10:35:40;8.70;91.50
13472;DHT22;6808;49.444;11.034;2024-02-26T10:38:10;8.70;92.10
13472;DHT22;6808;49.444;11.034;2024-02-26T10:40:35;8.80;92.40
13472;DHT22;6808;49.444;11.034;2024-02-26T10:43:02;8.90;92.00
13472;DHT22;6808;49.444;11.034;2024-02-26T10:45:27;9.00;92.00
13472;DHT22;6808;49.444;11.034;2024-02-26T10:47:53;8.90;91.20
13472;DHT22;6808;49.444;11.034;2024-02-26T10:50:19;8.90;91.00
13472;DHT22;6808;49.444;11.034;2024-02-26T10:52:45;8.90;92.00
13472;DHT22;6808;49.444;11.034;2024-02-26T10:55:15;9.00;92.40
13472;DHT22;6808;49.444;11.034;2024-02-26T10:57:44;9.00;91.90
13472;DHT22;6808;49.444;11.034;2024-02-26T11:00:13;9.10;91.40
13472;DHT22;6808;49.444;11.034;2024-02-26T11:02:40;9.20;91.30
13472;DHT22;6808;49.444;11.034;2024-02-26T11:05:06;9.20;91.30
13472;DHT22;6808;49.444;11.034;2024-02-26T11:07:34;9.30;90.80
13472;DHT22;6808;49.444;11.034;2024-02-26T11:10:00;9.40;90.50
13472;DHT22;6808;49.444;11.034;2024-02-26T11:12:28;9.50;90.40
13472;DHT22;6808;49.444;11.034;2024-02-26T11:14:55;9.60;90.10
13472;DHT22;6808;49.444;11.034;2024-02-26T11:17:22;9.70;89.00
13472;DHT22;6808;49.444;11.034;2024-02-26T11:19:50;9.70;87.20
13472;DHT22;6808;49.444;11.034;2024-02-26T11:22:16;9.80;86.20
13472;DHT22;6808;49.444;11.034;2024-02-26T11:24:42;9.90;84.10
13472;DHT22;6808;49.444;11.034;2024-02-26T11:27:10;10.00;84.40
13472;DHT22;6808;49.444;11.034;2024-02-26T11:29:43;10.00;84.10
13472;DHT22;6808;49.444;11.034;2024-02-26T11:32:09;10.20;83.50
13472;DHT22;6808;49.444;11.034;2024-02-26T11:34:35;10.30;83.70
13472;DHT22;6808;49.444;11.034;2024-02-26T11:37:14;10.30;80.60
13472;DHT22;6808;49.444;11.034;2024-02-26T11:39:41;10.30;80.20
13472;DHT22;6808;49.444;11.034;2024-02-26T11:42:08;10.30;82.00
13472;DHT22;6808;49.444;11.034;2024-02-26T11:44:34;10.40;82.80
13472;DHT22;6808;49.444;11.034;2024-02-26T11:47:22;10.50;81.50
13472;DHT22;6808;49.444;11.034;2024-02-26T11:49:48;10.50;79.60
13472;DHT22;6808;49.444;11.034;2024-02-26T11:52:14;10.50;80.20
13472;DHT22;6808;49.444;11.034;2024-02-26T11:54:47;10.60;79.20
13472;DHT22;6808;49.444;11.034;2024-02-26T11:57:29;10.70;80.80
13472;DHT22;6808;49.444;11.034;2024-02-26T11:59:57;10.80;79.80
13472;DHT22;6808;49.444;11.034;2024-02-26T12:02:45;10.90;81.30
13472;DHT22;6808;49.444;11.034;2024-02-26T12:05:21;11.00;79.00
13472;DHT22;6808;49.444;11.034;2024-02-26T12:08:05;11.00;80.60
13472;DHT22;6808;49.444;11.034;2024-02-26T12:10:36;11.10;78.50
13472;DHT22;6808;49.444;11.034;2024-02-26T12:13:16;11.20;81.30
13472;DHT22;6808;49.444;11.034;2024-02-26T12:15:43;11.20;81.90
13472;DHT22;6808;49.444;11.034;2024-02-26T12:18:15;11.30;78.10
13472;DHT22;6808;49.444;11.034;2024-02-26T12:20:41;11.40;80.10
13472;DHT22;6808;49.444;11.034;2024-02-26T12:23:07;11.50;79.90
13472;DHT22;6808;49.444;11.034;2024-02-26T12:25:33;11.60;80.00
13472;DHT22;6808;49.444;11.034;2024-02-26T12:27:59;11.60;78.20
13472;DHT22;6808;49.444;11.034;2024-02-26T12:30:25;11.40;76.30
13472;DHT22;6808;49.444;11.034;2024-02-26T12:32:53;11.40;77.30
13472;DHT22;6808;49.444;11.034;2024-02-26T12:35:23;11.40;77.40
13472;DHT22;6808;49.444;11.034;2024-02-26T12:37:49;11.40;78.80
13472;DHT22;6808;49.444;11.034;2024-02-26T12:40:17;11.40;79.80
13472;DHT22;6808;49.444;11.034;2024-02-26T12:42:43;11.40;78.40
13472;DHT22;6808;49.444;11.034;2024-02-26T12:45:10;11.40;79.10
13472;DHT22;6808;49.444;11.034;2024-02-26T12:47:44;11.50;77.90
13472;DHT22;6808;49.444;11.034;2024-02-26T12:50:11;11.60;77.30
13472;DHT22;6808;49.444;11.034;2024-02-26T12:52:43;11.70;77.50
13472;DHT22;6808;49.444;11.034;2024-02-26T12:55:11;11.80;81.10
13472;DHT22;6808;49.444;11.034;2024-02-26T12:57:39;11.90;82.80
13472;DHT22;6808;49.444;11.034;2024-02-26T13:00:06;12.00;82.10
13472;DHT22;6808;49.444;11.034;2024-02-26T13:02:37;12.20;81.00
13472;DHT22;6808;49.444;11.034;2024-02-26T13:05:05;12.20;77.20
13472;DHT22;6808;49.444;11.034;2024-02-26T13:07:31;12.20;76.70
13472;DHT22;6808;49.444;11.034;2024-02-26T13:09:57;12.30;77.00
13472;DHT22;6808;49.444;11.034;2024-02-26T13:12:22;12.40;75.10
13472;DHT22;6808;49.444;11.034;2024-02-26T13:15:01;12.60;75.10
13472;DHT22;6808;49.444;11.034;2024-02-26T13:17:27;12.60;68.70
13472;DHT22;6808;49.444;11.034;2024-02-26T13:19:54;12.70;68.50
13472;DHT22;6808;49.444;11.034;2024-02-26T13:22:23;12.80;66.40
13472;DHT22;6808;49.444;11.034;2024-02-26T13:24:59;12.80;66.60
13472;DHT22;6808;49.444;11.034;2024-02-26T13:27:26;12.80;61.60
13472;DHT22;6808;49.444;11.034;2024-02-26T13:30:08;12.70;59.50
13472;DHT22;6808;49.444;11.034;2024-02-26T13:32:36;12.70;60.50
13472;DHT22;6808;49.444;11.034;2024-02-26T13:37:35;12.90;59.00
13472;DHT22;6808;49.444;11.034;2024-02-26T13:40:05;12.90;59.40
13472;DHT22;6808;49.444;11.034;2024-02-26T13:42:31;12.90;60.50
13472;DHT22;6808;49.444;11.034;2024-02-26T13:44:56;12.70;59.60
13472;DHT22;6808;49.444;11.034;2024-02-26T13:47:22;12.60;59.30
13472;DHT22;6808;49.444;11.034;2024-02-26T13:49:47;12.40;57.80
13472;DHT22;6808;49.444;11.034;2024-02-26T13:52:14;12.40;59.60
13472;DHT22;6808;49.444;11.034;2024-02-26T13:54:39;12.40;59.80
13472;DHT22;6808;49.444;11.034;2024-02-26T13:57:06;12.40;59.60
13472;DHT22;6808;49.444;11.034;2024-02-26T13:59:31;12.30;56.20
13472;DHT22;6808;49.444;11.034;2024-02-26T14:01:57;12.30;55.10
13472;DHT22;6808;49.444;11.034;2024-02-26T14:04:23;12.20;56.00
13472;DHT22;6808;49.444;11.034;2024-02-26T14:06:48;12.20;55.00
13472;DHT22;6808;49.444;11.034;2024-02-26T14:09:14;12.20;57.20
13472;DHT22;6808;49.444;11.034;2024-02-26T14:11:45;12.10;59.20
13472;DHT22;6808;49.444;11.034;2024-02-26T14:14:11;12.20;59.50
13472;DHT22;6808;49.444;11.034;2024-02-26T14:16:36;12.20;57.50
13472;DHT22;6808;49.444;11.034;2024-02-26T14:19:02;12.20;56.50
13472;DHT22;6808;49.444;11.034;2024-02-26T14:21:28;12.20;57.30
13472;DHT22;6808;49.444;11.034;2024-02-26T14:23:55;12.20;56.50
13472;DHT22;6808;49.444;11.034;2024-02-26T14:26:21;12.10;56.50
13472;DHT22;6808;49.444;11.034;2024-02-26T14:28:47;12.10;56.90
13472;DHT22;6808;49.444;11.034;2024-02-26T14:31:12;12.10;57.30
13472;DHT22;6808;49.444;11.034;2024-02-26T14:33:38;12.10;57.90
13472;DHT22;6808;49.444;11.034;2024-02-26T14:36:06;12.10;57.90
13472;DHT22;6808;49.444;11.034;2024-02-26T14:38:32;12.00;57.90
13472;DHT22;6808;49.444;11.034;2024-02-26T14:40:58;12.00;58.50
13472;DHT22;6808;49.444;11.034;2024-02-26T14:43:23;12.00;59.20
13472;DHT22;6808;49.444;11.034;2024-02-26T14:45:49;11.90;60.40
13472;DHT22;6808;49.444;11.034;2024-02-26T14:48:15;11.90;58.50
13472;DHT22;6808;49.444;11.034;2024-02-26T14:50:41;11.90;58.30
13472;DHT22;6808;49.444;11.034;2024-02-26T14:53:06;11.90;59.20
13472;DHT22;6808;49.444;11.034;2024-02-26T14:55:32;11.90;59.70
13472;DHT22;6808;49.444;11.034;2024-02-26T14:57:58;11.80;59.10
13472;DHT22;6808;49.444;11.034;2024-02-26T15:00:24;11.80;59.20
13472;DHT22;6808;49.444;11.034;2024-02-26T15:02:49;11.80;62.40
13472;DHT22;6808;49.444;11.034;2024-02-26T15:05:17;11.70;65.10
13472;DHT22;6808;49.444;11.034;2024-02-26T15:07:44;11.70;67.70
13472;DHT22;6808;49.444;11.034;2024-02-26T15:10:10;11.60;69.00
13472;DHT22;6808;49.444;11.034;2024-02-26T15:12:36;11.60;71.20
13472;DHT22;6808;49.444;11.034;2024-02-26T15:15:01;11.50;70.90
13472;DHT22;6808;49.444;11.034;2024-02-26T15:17:27;11.40;71.50
13472;DHT22;6808;49.444;11.034;2024-02-26T15:19:53;11.40;73.00
13472;DHT22;6808;49.444;11.034;2024-02-26T15:22:19;11.30;73.40
13472;DHT22;6808;49.444;11.034;2024-02-26T15:24:44;11.30;74.80
13472;DHT22;6808;49.444;11.034;2024-02-26T15:27:12;11.30;75.90
13472;DHT22;6808;49.444;11.034;2024-02-26T15:29:37;11.30;75.90
13472;DHT22;6808;49.444;11.034;2024-02-26T15:32:05;11.20;75.00
13472;DHT22;6808;49.444;11.034;2024-02-26T15:34:30;11.20;75.50
13472;DHT22;6808;49.444;11.034;2024-02-26T15:36:56;11.10;76.00
13472;DHT22;6808;49.444;11.034;2024-02-26T15:39:22;11.10;76.10
13472;DHT22;6808;49.444;11.034;2024-02-26T15:41:47;11.10;76.50